sensor_id;sensor_type;location;lat;lon;timestamp;P1;durP1;ratioP1;P2;durP2;ratioP2
19617;SDS011;9956;51.006;13.670;2022-10-14T00:03:18;26.55;;;20.58;;
19617;SDS011;9956;51.006;13.670;2022-10-14T00:08:18;23.83;;;19.35;;
19617;SDS011;9956;51.006;13.670;2022-10-14T00:13:18;25.08;;;19.63;;
19617;SDS011;9956;51.006;13.670;2022-10-14T00:18:19;24.95;;;17.77;;
19617;SDS011;9956;51.006;13.670;2022-10-14T00:23:19;23.35;;;17.77;;
19617;SDS011;9956;51.006;13.670;2022-10-14T00:28:20;25.75;;;18.70;;
19617;SDS011;9956;51.006;13.670;2022-10-14T00:33:20;22.20;;;17.90;;
19617;SDS011;9956;51.006;13.670;2022-10-14T00:38:21;27.80;;;18.75;;
19617;SDS011;9956;51.006;13.670;2022-10-14T00:43:23;22.60;;;16.88;;
19617;SDS011;9956;51.006;13.670;2022-10-14T00:48:24;22.58;;;15.73;;
19617;SDS011;9956;51.006;13.670;2022-10-14T00:53:28;23.20;;;17.50;;
19617;SDS011;9956;51.006;13.670;2022-10-14T00:58:29;18.65;;;15.35;;
19617;SDS011;9956;51.006;13.670;2022-10-14T01:03:31;20.65;;;16.08;;
19617;SDS011;9956;51.006;13.670;2022-10-14T01:14:00;21.15;;;16.45;;
19617;SDS011;9956;51.006;13.670;2022-10-14T01:30:08;19.23;;;15.57;;
19617;SDS011;9956;51.006;13.670;2022-10-14T01:35:28;22.85;;;17.15;;
19617;SDS011;9956;51.006;13.670;2022-10-14T01:40:34;22.27;;;15.95;;
19617;SDS011;9956;51.006;13.670;2022-10-14T01:45:39;17.02;;;15.10;;
19617;SDS011;9956;51.006;13.670;2022-10-14T01:50:45;17.05;;;13.82;;
19617;SDS011;9956;51.006;13.670;2022-10-14T01:55:47;19.25;;;15.18;;
19617;SDS011;9956;51.006;13.670;2022-10-14T02:00:49;19.63;;;14.75;;
19617;SDS011;9956;51.006;13.670;2022-10-14T02:05:55;17.95;;;14.25;;
19617;SDS011;9956;51.006;13.670;2022-10-14T02:16:40;18.45;;;14.23;;
19617;SDS011;9956;51.006;13.670;2022-10-14T02:26:41;17.73;;;13.38;;
19617;SDS011;9956;51.006;13.670;2022-10-14T02:31:43;17.48;;;12.93;;
19617;SDS011;9956;51.006;13.670;2022-10-14T02:36:45;14.15;;;12.10;;
19617;SDS011;9956;51.006;13.670;2022-10-14T02:41:47;15.20;;;12.20;;
19617;SDS011;9956;51.006;13.670;2022-10-14T02:46:47;15.30;;;11.95;;
19617;SDS011;9956;51.006;13.670;2022-10-14T02:51:48;17.55;;;13.38;;
19617;SDS011;9956;51.006;13.670;2022-10-14T02:56:48;16.75;;;12.82;;
19617;SDS011;9956;51.006;13.670;2022-10-14T03:01:49;15.95;;;13.02;;
19617;SDS011;9956;51.006;13.670;2022-10-14T03:06:50;16.48;;;13.40;;
19617;SDS011;9956;51.006;13.670;2022-10-14T03:11:52;14.10;;;12.55;;
19617;SDS011;9956;51.006;13.670;2022-10-14T03:16:54;16.17;;;12.73;;
19617;SDS011;9956;51.006;13.670;2022-10-14T03:21:58;17.02;;;15.00;;
19617;SDS011;9956;51.006;13.670;2022-10-14T03:26:59;15.77;;;13.10;;
19617;SDS011;9956;51.006;13.670;2022-10-14T03:32:01;18.35;;;12.65;;
19617;SDS011;9956;51.006;13.670;2022-10-14T03:37:18;14.88;;;11.75;;
19617;SDS011;9956;51.006;13.670;2022-10-14T03:42:23;12.95;;;11.32;;
19617;SDS011;9956;51.006;13.670;2022-10-14T03:47:24;13.52;;;11.45;;
19617;SDS011;9956;51.006;13.670;2022-10-14T03:52:25;16.25;;;12.20;;
19617;SDS011;9956;51.006;13.670;2022-10-14T03:57:48;14.35;;;11.30;;
19617;SDS011;9956;51.006;13.670;2022-10-14T04:02:49;11.35;;;9.55;;
19617;SDS011;9956;51.006;13.670;2022-10-14T04:08:09;11.43;;;9.13;;
19617;SDS011;9956;51.006;13.670;2022-10-14T04:13:13;11.32;;;9.63;;
19617;SDS011;9956;51.006;13.670;2022-10-14T04:18:14;12.50;;;9.32;;
19617;SDS011;9956;51.006;13.670;2022-10-14T04:23:16;14.15;;;11.60;;
19617;SDS011;9956;51.006;13.670;2022-10-14T04:28:19;14.75;;;11.40;;
19617;SDS011;9956;51.006;13.670;2022-10-14T04:33:28;15.30;;;11.77;;
19617;SDS011;9956;51.006;13.670;2022-10-14T04:38:29;17.08;;;12.57;;
19617;SDS011;9956;51.006;13.670;2022-10-14T04:43:35;16.98;;;14.18;;
19617;SDS011;9956;51.006;13.670;2022-10-14T04:48:50;13.82;;;12.00;;
19617;SDS011;9956;51.006;13.670;2022-10-14T04:54:03;13.90;;;11.43;;
19617;SDS011;9956;51.006;13.670;2022-10-14T04:59:15;12.13;;;10.73;;
19617;SDS011;9956;51.006;13.670;2022-10-14T05:04:31;17.48;;;11.55;;
19617;SDS011;9956;51.006;13.670;2022-10-14T05:09:33;14.40;;;11.57;;
19617;SDS011;9956;51.006;13.670;2022-10-14T05:14:34;15.73;;;11.50;;
19617;SDS011;9956;51.006;13.670;2022-10-14T05:19:45;12.70;;;11.32;;
19617;SDS011;9956;51.006;13.670;2022-10-14T05:24:47;17.33;;;11.40;;
19617;SDS011;9956;51.006;13.670;2022-10-14T05:29:48;13.05;;;10.60;;
19617;SDS011;9956;51.006;13.670;2022-10-14T05:34:48;11.65;;;9.88;;
19617;SDS011;9956;51.006;13.670;2022-10-14T05:40:03;13.88;;;11.80;;
19617;SDS011;9956;51.006;13.670;2022-10-14T05:45:08;14.63;;;11.02;;
19617;SDS011;9956;51.006;13.670;2022-10-14T05:50:15;13.95;;;10.75;;
19617;SDS011;9956;51.006;13.670;2022-10-14T05:55:19;14.63;;;11.63;;
19617;SDS011;9956;51.006;13.670;2022-10-14T06:00:21;15.80;;;11.52;;
19617;SDS011;9956;51.006;13.670;2022-10-14T06:05:26;14.65;;;11.82;;
19617;SDS011;9956;51.006;13.670;2022-10-14T06:10:26;14.48;;;11.77;;
19617;SDS011;9956;51.006;13.670;2022-10-14T06:15:27;13.38;;;11.88;;
19617;SDS011;9956;51.006;13.670;2022-10-14T06:20:29;12.48;;;11.20;;
19617;SDS011;9956;51.006;13.670;2022-10-14T06:25:29;15.50;;;12.10;;
19617;SDS011;9956;51.006;13.670;2022-10-14T06:30:30;13.05;;;10.90;;
19617;SDS011;9956;51.006;13.670;2022-10-14T06:35:31;15.82;;;13.32;;
19617;SDS011;9956;51.006;13.670;2022-10-14T06:40:32;28.75;;;21.20;;
19617;SDS011;9956;51.006;13.670;2022-10-14T06:45:32;23.75;;;19.00;;
19617;SDS011;9956;51.006;13.670;2022-10-14T06:50:32;13.20;;;11.40;;
19617;SDS011;9956;51.006;13.670;2022-10-14T06:55:33;12.18;;;10.80;;
19617;SDS011;9956;51.006;13.670;2022-10-14T07:00:33;13.30;;;10.93;;
19617;SDS011;9956;51.006;13.670;2022-10-14T07:05:34;11.27;;;9.13;;
19617;SDS011;9956;51.006;13.670;2022-10-14T07:10:35;11.52;;;9.88;;
19617;SDS011;9956;51.006;13.670;2022-10-14T07:15:36;11.77;;;10.57;;
19617;SDS011;9956;51.006;13.670;2022-10-14T07:20:37;11.38;;;10.20;;
19617;SDS011;9956;51.006;13.670;2022-10-14T07:25:37;11.02;;;9.88;;
19617;SDS011;9956;51.006;13.670;2022-10-14T07:30:37;12.35;;;10.50;;
19617;SDS011;9956;51.006;13.670;2022-10-14T07:35:38;11.70;;;10.00;;
19617;SDS011;9956;51.006;13.670;2022-10-14T07:40:38;19.70;;;12.30;;
19617;SDS011;9956;51.006;13.670;2022-10-14T07:45:39;12.10;;;10.65;;
19617;SDS011;9956;51.006;13.670;2022-10-14T07:50:47;10.57;;;9.52;;
19617;SDS011;9956;51.006;13.670;2022-10-14T07:55:48;14.98;;;10.07;;
19617;SDS011;9956;51.006;13.670;2022-10-14T08:00:52;16.20;;;10.93;;
19617;SDS011;9956;51.006;13.670;2022-10-14T08:06:01;15.88;;;12.25;;
19617;SDS011;9956;51.006;13.670;2022-10-14T08:16:37;9.85;;;7.68;;
19617;SDS011;9956;51.006;13.670;2022-10-14T08:21:32;7.38;;;6.35;;
19617;SDS011;9956;51.006;13.670;2022-10-14T08:26:34;8.45;;;6.30;;
19617;SDS011;9956;51.006;13.670;2022-10-14T08:31:36;7.68;;;5.53;;
19617;SDS011;9956;51.006;13.670;2022-10-14T08:36:37;6.88;;;6.15;;
19617;SDS011;9956;51.006;13.670;2022-10-14T08:47:19;5.35;;;4.70;;
19617;SDS011;9956;51.006;13.670;2022-10-14T08:57:36;6.75;;;5.13;;
19617;SDS011;9956;51.006;13.670;2022-10-14T09:02:42;5.85;;;5.35;;
19617;SDS011;9956;51.006;13.670;2022-10-14T09:07:46;5.88;;;5.10;;
19617;SDS011;9956;51.006;13.670;2022-10-14T09:12:47;7.10;;;4.90;;
19617;SDS011;9956;51.006;13.670;2022-10-14T09:18:00;5.22;;;4.63;;
19617;SDS011;9956;51.006;13.670;2022-10-14T09:23:23;7.13;;;4.93;;
19617;SDS011;9956;51.006;13.670;2022-10-14T09:28:35;5.43;;;4.40;;
19617;SDS011;9956;51.006;13.670;2022-10-14T09:33:38;5.30;;;4.20;;
19617;SDS011;9956;51.006;13.670;2022-10-14T09:38:40;6.65;;;5.55;;
19617;SDS011;9956;51.006;13.670;2022-10-14T09:44:11;5.50;;;5.00;;
19617;SDS011;9956;51.006;13.670;2022-10-14T09:49:17;7.97;;;5.45;;
19617;SDS011;9956;51.006;13.670;2022-10-14T09:54:23;5.32;;;4.40;;
19617;SDS011;9956;51.006;13.670;2022-10-14T09:59:25;4.47;;;4.07;;
19617;SDS011;9956;51.006;13.670;2022-10-14T10:04:40;4.25;;;3.72;;
19617;SDS011;9956;51.006;13.670;2022-10-14T10:09:52;4.78;;;3.50;;
19617;SDS011;9956;51.006;13.670;2022-10-14T10:14:55;4.13;;;3.25;;
19617;SDS011;9956;51.006;13.670;2022-10-14T10:20:33;4.57;;;3.78;;
19617;SDS011;9956;51.006;13.670;2022-10-14T10:25:31;4.63;;;3.78;;
19617;SDS011;9956;51.006;13.670;2022-10-14T10:30:37;3.30;;;2.93;;
19617;SDS011;9956;51.006;13.670;2022-10-14T10:56:47;1.95;;;1.33;;
19617;SDS011;9956;51.006;13.670;2022-10-14T11:07:20;2.17;;;1.60;;
19617;SDS011;9956;51.006;13.670;2022-10-14T11:12:55;4.45;;;2.70;;
19617;SDS011;9956;51.006;13.670;2022-10-14T11:18:02;5.30;;;2.53;;
19617;SDS011;9956;51.006;13.670;2022-10-14T11:28:37;5.35;;;3.00;;
19617;SDS011;9956;51.006;13.670;2022-10-14T11:33:47;3.85;;;2.97;;
19617;SDS011;9956;51.006;13.670;2022-10-14T11:44:35;4.68;;;2.95;;
19617;SDS011;9956;51.006;13.670;2022-10-14T11:49:41;3.72;;;2.92;;
19617;SDS011;9956;51.006;13.670;2022-10-14T11:54:54;3.38;;;3.08;;
19617;SDS011;9956;51.006;13.670;2022-10-14T12:05:17;3.45;;;2.80;;
19617;SDS011;9956;51.006;13.670;2022-10-14T12:10:44;4.38;;;2.85;;
19617;SDS011;9956;51.006;13.670;2022-10-14T12:15:48;4.90;;;3.08;;
19617;SDS011;9956;51.006;13.670;2022-10-14T12:27:02;3.03;;;2.72;;
19617;SDS011;9956;51.006;13.670;2022-10-14T12:42:23;2.83;;;2.58;;
19617;SDS011;9956;51.006;13.670;2022-10-14T12:47:32;3.35;;;2.63;;
19617;SDS011;9956;51.006;13.670;2022-10-14T12:52:35;3.30;;;2.70;;
19617;SDS011;9956;51.006;13.670;2022-10-14T12:57:36;3.28;;;2.42;;
19617;SDS011;9956;51.006;13.670;2022-10-14T13:23:42;2.70;;;2.17;;
19617;SDS011;9956;51.006;13.670;2022-10-14T13:29:04;3.17;;;1.92;;
19617;SDS011;9956;51.006;13.670;2022-10-14T13:39:52;2.15;;;1.95;;
19617;SDS011;9956;51.006;13.670;2022-10-14T13:44:53;2.22;;;1.70;;
19617;SDS011;9956;51.006;13.670;2022-10-14T13:49:56;2.35;;;1.88;;
19617;SDS011;9956;51.006;13.670;2022-10-14T13:55:18;2.97;;;1.58;;
19617;SDS011;9956;51.006;13.670;2022-10-14T14:00:26;2.10;;;1.88;;
19617;SDS011;9956;51.006;13.670;2022-10-14T14:05:29;3.45;;;1.90;;
19617;SDS011;9956;51.006;13.670;2022-10-14T14:10:31;2.53;;;1.85;;
19617;SDS011;9956;51.006;13.670;2022-10-14T14:15:32;1.65;;;1.55;;
19617;SDS011;9956;51.006;13.670;2022-10-14T14:20:32;2.95;;;1.98;;
19617;SDS011;9956;51.006;13.670;2022-10-14T14:25:34;2.65;;;2.00;;
19617;SDS011;9956;51.006;13.670;2022-10-14T14:30:35;2.47;;;1.50;;
19617;SDS011;9956;51.006;13.670;2022-10-14T14:35:36;3.55;;;1.63;;
19617;SDS011;9956;51.006;13.670;2022-10-14T14:40:36;1.85;;;1.55;;
19617;SDS011;9956;51.006;13.670;2022-10-14T14:45:41;1.65;;;1.55;;
19617;SDS011;9956;51.006;13.670;2022-10-14T14:50:43;1.98;;;1.88;;
19617;SDS011;9956;51.006;13.670;2022-10-14T15:00:53;4.28;;;1.73;;
19617;SDS011;9956;51.006;13.670;2022-10-14T15:05:56;1.90;;;1.50;;
19617;SDS011;9956;51.006;13.670;2022-10-14T15:10:59;2.55;;;2.03;;
19617;SDS011;9956;51.006;13.670;2022-10-14T15:16:00;3.33;;;2.17;;
19617;SDS011;9956;51.006;13.670;2022-10-14T15:21:04;3.22;;;2.67;;
19617;SDS011;9956;51.006;13.670;2022-10-14T15:31:26;4.47;;;3.33;;
19617;SDS011;9956;51.006;13.670;2022-10-14T15:36:27;4.25;;;3.85;;
19617;SDS011;9956;51.006;13.670;2022-10-14T15:41:30;5.53;;;4.88;;
19617;SDS011;9956;51.006;13.670;2022-10-14T15:46:30;10.77;;;8.05;;
19617;SDS011;9956;51.006;13.670;2022-10-14T15:51:49;6.15;;;5.20;;
19617;SDS011;9956;51.006;13.670;2022-10-14T15:56:51;6.93;;;6.22;;
19617;SDS011;9956;51.006;13.670;2022-10-14T16:01:52;9.52;;;6.93;;
19617;SDS011;9956;51.006;13.670;2022-10-14T16:06:54;9.60;;;7.72;;
19617;SDS011;9956;51.006;13.670;2022-10-14T16:11:55;9.25;;;8.32;;
19617;SDS011;9956;51.006;13.670;2022-10-14T16:16:56;9.23;;;7.88;;
19617;SDS011;9956;51.006;13.670;2022-10-14T16:21:56;11.32;;;8.95;;
19617;SDS011;9956;51.006;13.670;2022-10-14T16:26:57;9.02;;;8.13;;
19617;SDS011;9956;51.006;13.670;2022-10-14T16:31:57;9.00;;;7.68;;
19617;SDS011;9956;51.006;13.670;2022-10-14T16:36:58;11.75;;;7.68;;
19617;SDS011;9956;51.006;13.670;2022-10-14T16:42:01;8.65;;;7.78;;
19617;SDS011;9956;51.006;13.670;2022-10-14T16:47:02;8.18;;;7.30;;
19617;SDS011;9956;51.006;13.670;2022-10-14T16:52:19;12.05;;;7.82;;
19617;SDS011;9956;51.006;13.670;2022-10-14T16:57:19;9.32;;;7.68;;
19617;SDS011;9956;51.006;13.670;2022-10-14T17:02:20;10.13;;;7.97;;
19617;SDS011;9956;51.006;13.670;2022-10-14T17:07:21;13.88;;;12.00;;
19617;SDS011;9956;51.006;13.670;2022-10-14T17:12:25;14.55;;;13.05;;
19617;SDS011;9956;51.006;13.670;2022-10-14T17:17:25;17.58;;;14.93;;
19617;SDS011;9956;51.006;13.670;2022-10-14T17:22:26;17.20;;;15.43;;
19617;SDS011;9956;51.006;13.670;2022-10-14T17:27:27;18.10;;;16.25;;
19617;SDS011;9956;51.006;13.670;2022-10-14T17:32:27;24.75;;;17.42;;
19617;SDS011;9956;51.006;13.670;2022-10-14T17:37:28;18.45;;;16.52;;
19617;SDS011;9956;51.006;13.670;2022-10-14T17:42:29;14.65;;;13.00;;
19617;SDS011;9956;51.006;13.670;2022-10-14T17:47:31;16.55;;;14.43;;
19617;SDS011;9956;51.006;13.670;2022-10-14T17:52:32;15.30;;;13.65;;
19617;SDS011;9956;51.006;13.670;2022-10-14T17:57:32;14.35;;;12.90;;
19617;SDS011;9956;51.006;13.670;2022-10-14T18:02:33;15.80;;;14.13;;
19617;SDS011;9956;51.006;13.670;2022-10-14T18:07:36;14.20;;;12.80;;
19617;SDS011;9956;51.006;13.670;2022-10-14T18:12:36;23.00;;;19.95;;
19617;SDS011;9956;51.006;13.670;2022-10-14T18:17:37;22.40;;;18.75;;
19617;SDS011;9956;51.006;13.670;2022-10-14T18:22:38;21.70;;;19.35;;
19617;SDS011;9956;51.006;13.670;2022-10-14T18:27:42;22.58;;;19.85;;
19617;SDS011;9956;51.006;13.670;2022-10-14T18:32:43;24.63;;;21.95;;
19617;SDS011;9956;51.006;13.670;2022-10-14T18:37:43;31.20;;;22.42;;
19617;SDS011;9956;51.006;13.670;2022-10-14T18:42:43;26.38;;;23.50;;
19617;SDS011;9956;51.006;13.670;2022-10-14T18:47:45;27.35;;;23.13;;
19617;SDS011;9956;51.006;13.670;2022-10-14T18:52:45;33.55;;;27.80;;
19617;SDS011;9956;51.006;13.670;2022-10-14T18:57:46;29.08;;;24.05;;
19617;SDS011;9956;51.006;13.670;2022-10-14T19:02:46;31.92;;;27.17;;
19617;SDS011;9956;51.006;13.670;2022-10-14T19:07:47;30.48;;;25.70;;
19617;SDS011;9956;51.006;13.670;2022-10-14T19:12:47;29.70;;;26.42;;
19617;SDS011;9956;51.006;13.670;2022-10-14T19:17:51;31.63;;;26.00;;
19617;SDS011;9956;51.006;13.670;2022-10-14T19:22:53;29.95;;;24.35;;
19617;SDS011;9956;51.006;13.670;2022-10-14T19:27:53;35.05;;;28.27;;
19617;SDS011;9956;51.006;13.670;2022-10-14T19:32:53;29.65;;;25.15;;
19617;SDS011;9956;51.006;13.670;2022-10-14T19:37:54;28.05;;;23.55;;
19617;SDS011;9956;51.006;13.670;2022-10-14T19:42:54;27.40;;;24.27;;
19617;SDS011;9956;51.006;13.670;2022-10-14T19:47:55;29.90;;;22.63;;
19617;SDS011;9956;51.006;13.670;2022-10-14T19:52:55;25.15;;;21.55;;
19617;SDS011;9956;51.006;13.670;2022-10-14T19:57:56;19.75;;;17.63;;
19617;SDS011;9956;51.006;13.670;2022-10-14T20:02:56;20.40;;;16.83;;
19617;SDS011;9956;51.006;13.670;2022-10-14T20:07:57;21.80;;;18.25;;
19617;SDS011;9956;51.006;13.670;2022-10-14T20:12:57;21.35;;;17.50;;
19617;SDS011;9956;51.006;13.670;2022-10-14T20:17:58;17.92;;;15.05;;
19617;SDS011;9956;51.006;13.670;2022-10-14T20:22:58;21.30;;;18.90;;
19617;SDS011;9956;51.006;13.670;2022-10-14T20:27:59;20.15;;;17.88;;
19617;SDS011;9956;51.006;13.670;2022-10-14T20:32:59;23.50;;;20.48;;
19617;SDS011;9956;51.006;13.670;2022-10-14T20:38:00;25.02;;;22.35;;
19617;SDS011;9956;51.006;13.670;2022-10-14T20:43:01;22.17;;;19.67;;
19617;SDS011;9956;51.006;13.670;2022-10-14T20:48:04;13.48;;;11.90;;
19617;SDS011;9956;51.006;13.670;2022-10-14T20:53:05;22.00;;;19.70;;
19617;SDS011;9956;51.006;13.670;2022-10-14T20:58:05;22.20;;;19.88;;
19617;SDS011;9956;51.006;13.670;2022-10-14T21:03:06;18.83;;;16.85;;
19617;SDS011;9956;51.006;13.670;2022-10-14T21:08:06;14.52;;;11.55;;
19617;SDS011;9956;51.006;13.670;2022-10-14T21:13:07;10.05;;;9.05;;
19617;SDS011;9956;51.006;13.670;2022-10-14T21:18:07;12.20;;;10.30;;
19617;SDS011;9956;51.006;13.670;2022-10-14T21:23:09;10.20;;;9.00;;
19617;SDS011;9956;51.006;13.670;2022-10-14T21:28:10;10.30;;;7.82;;
19617;SDS011;9956;51.006;13.670;2022-10-14T21:33:10;10.15;;;8.43;;
19617;SDS011;9956;51.006;13.670;2022-10-14T21:38:10;10.95;;;7.15;;
19617;SDS011;9956;51.006;13.670;2022-10-14T21:43:11;7.65;;;6.57;;
19617;SDS011;9956;51.006;13.670;2022-10-14T21:48:11;10.80;;;6.70;;
19617;SDS011;9956;51.006;13.670;2022-10-14T21:53:12;8.52;;;6.65;;
19617;SDS011;9956;51.006;13.670;2022-10-14T21:58:12;7.32;;;5.88;;
19617;SDS011;9956;51.006;13.670;2022-10-14T22:03:12;7.63;;;6.10;;
19617;SDS011;9956;51.006;13.670;2022-10-14T22:08:13;11.55;;;6.00;;
19617;SDS011;9956;51.006;13.670;2022-10-14T22:13:13;6.75;;;6.07;;
19617;SDS011;9956;51.006;13.670;2022-10-14T22:18:14;9.23;;;6.60;;
19617;SDS011;9956;51.006;13.670;2022-10-14T22:23:14;9.63;;;7.05;;
19617;SDS011;9956;51.006;13.670;2022-10-14T22:28:15;8.73;;;6.97;;
19617;SDS011;9956;51.006;13.670;2022-10-14T22:33:15;6.60;;;5.95;;
19617;SDS011;9956;51.006;13.670;2022-10-14T22:38:16;9.15;;;8.02;;
19617;SDS011;9956;51.006;13.670;2022-10-14T22:43:16;8.40;;;7.60;;
19617;SDS011;9956;51.006;13.670;2022-10-14T22:48:17;9.82;;;8.00;;
19617;SDS011;9956;51.006;13.670;2022-10-14T22:53:17;11.75;;;10.20;;
19617;SDS011;9956;51.006;13.670;2022-10-14T22:58:18;10.85;;;9.77;;
19617;SDS011;9956;51.006;13.670;2022-10-14T23:03:18;10.30;;;9.20;;
19617;SDS011;9956;51.006;13.670;2022-10-14T23:08:19;10.35;;;8.85;;
19617;SDS011;9956;51.006;13.670;2022-10-14T23:13:20;10.15;;;9.00;;
19617;SDS011;9956;51.006;13.670;2022-10-14T23:18:21;10.30;;;8.38;;
19617;SDS011;9956;51.006;13.670;2022-10-14T23:23:23;10.00;;;8.95;;
19617;SDS011;9956;51.006;13.670;2022-10-14T23:28:23;11.43;;;9.70;;
19617;SDS011;9956;51.006;13.670;2022-10-14T23:33:25;10.43;;;9.32;;
19617;SDS011;9956;51.006;13.670;2022-10-14T23:38:26;10.13;;;8.55;;
19617;SDS011;9956;51.006;13.670;2022-10-14T23:43:26;11.05;;;10.05;;
19617;SDS011;9956;51.006;13.670;2022-10-14T23:48:27;9.52;;;8.52;;
19617;SDS011;9956;51.006;13.670;2022-10-14T23:53:27;10.05;;;9.05;;
19617;SDS011;9956;51.006;13.670;2022-10-14T23:58:28;11.55;;;10.45;;
